createdAt,value
2023-01-03T00:00:17.062Z,100250.41
2023-01-03T00:02:43.726Z,100247.59
2023-01-03T00:05:10.298Z,100248.56
2023-01-03T00:07:36.968Z,100254.34
2023-01-03T00:10:09.846Z,100251.16
2023-01-03T00:12:37.561Z,100252.81
2023-01-03T00:15:04.802Z,100246.69
2023-01-03T00:17:31.524Z,100250.13
2023-01-03T00:19:58.145Z,100253.66
2023-01-03T00:22:24.792Z,100261.28
2023-01-03T00:24:53.133Z,100265.09
2023-01-03T00:27:19.863Z,100260.50
2023-01-03T00:29:46.820Z,100264.81
2023-01-03T00:32:13.726Z,100271.75
2023-01-03T00:34:43.804Z,100278.19
2023-01-03T00:37:10.535Z,100283.50
2023-01-03T00:39:38.240Z,100297.25
2023-01-03T00:42:04.852Z,100287.63
2023-01-03T00:44:31.950Z,100282.06
2023-01-03T00:46:58.570Z,100276.25
2023-01-03T00:49:25.227Z,100277.50
2023-01-03T00:51:53.854Z,100286.97
2023-01-03T00:54:21.290Z,100289.31
2023-01-03T00:56:49.369Z,100293.78
2023-01-03T00:59:18.249Z,100301.25
2023-01-03T01:01:53.251Z,100294.97
2023-01-03T01:04:31.315Z,100288.69
2023-01-03T01:07:00.675Z,100299.44
2023-01-03T01:09:30.412Z,100298.44
2023-01-03T01:11:57.113Z,100302.44
2023-01-03T01:14:25.801Z,100313.41
2023-01-03T01:16:55.229Z,100303.59
2023-01-03T01:19:25.788Z,100304.72
2023-01-03T01:21:53.506Z,100308.91
2023-01-03T01:24:20.197Z,100312.16
2023-01-03T01:26:47.333Z,100305.38
2023-01-03T01:29:15.225Z,100311.53
2023-01-03T01:31:42.587Z,100316.72
2023-01-03T01:34:09.789Z,100315.75
2023-01-03T01:36:37.813Z,100317.41
2023-01-03T01:39:10.416Z,100323.72
2023-01-03T01:41:56.670Z,100321.72
2023-01-03T01:44:46.972Z,100331.13
2023-01-03T01:47:28.594Z,100321.97
2023-01-03T01:50:10.459Z,100334.97
2023-01-03T01:52:39.765Z,100317.69
2023-01-03T01:55:09.059Z,100324.19
2023-01-03T01:57:36.958Z,100330.56
2023-01-03T02:00:05.323Z,100336.22
2023-01-03T02:02:32.133Z,100334.59
2023-01-03T02:05:06.912Z,100331.22
2023-01-03T02:07:34.223Z,100343.81
2023-01-03T02:10:01.091Z,100340.97
2023-01-03T02:12:49.751Z,100345.78
2023-01-03T02:15:49.219Z,100343.63
2023-01-03T02:18:24.985Z,100342.91
2023-01-03T02:20:54.537Z,100350.66
2023-01-03T02:23:24.002Z,100355.63
2023-01-03T02:25:59.502Z,100355.50
2023-01-03T02:28:41.009Z,100362.81
2023-01-03T02:31:10.262Z,100359.19
2023-01-03T02:33:57.707Z,100362.81
2023-01-03T02:36:55.902Z,100360.34
2023-01-03T02:39:40.765Z,100359.44
2023-01-03T02:42:30.274Z,100362.38
2023-01-03T02:45:11.176Z,100362.69
2023-01-03T02:47:44.338Z,100359.72
2023-01-03T02:50:12.218Z,100355.63
2023-01-03T02:52:40.516Z,100354.16
2023-01-03T02:55:15.177Z,100363.25
2023-01-03T02:57:52.748Z,100352.84
2023-01-03T03:00:24.764Z,100352.38
2023-01-03T03:02:55.507Z,100348.84
2023-01-03T03:05:25.324Z,100347.84
2023-01-03T03:07:52.570Z,100347.56
2023-01-03T03:10:38.372Z,100359.97
2023-01-03T03:13:15.594Z,100358.16
2023-01-03T03:16:06.089Z,100360.78
2023-01-03T03:18:45.646Z,100364.88
2023-01-03T03:21:31.363Z,100361.53
2023-01-03T03:24:21.041Z,100360.03
2023-01-03T03:26:49.351Z,100361.53
2023-01-03T03:29:17.233Z,100365.72
2023-01-03T03:31:45.617Z,100371.00
2023-01-03T03:34:18.769Z,100372.97
2023-01-03T03:36:51.884Z,100377.28
2023-01-03T03:39:37.162Z,100369.19
2023-01-03T03:42:49.331Z,100368.34
2023-01-03T03:45:30.324Z,100373.94
2023-01-03T03:48:04.836Z,100383.41
2023-01-03T03:50:37.802Z,100376.69
2023-01-03T03:53:07.399Z,100379.03
2023-01-03T03:55:39.314Z,100388.47
2023-01-03T03:58:09.082Z,100388.38
2023-01-03T04:00:38.478Z,100405.94
2023-01-03T04:03:06.323Z,100396.03
2023-01-03T04:05:37.923Z,100391.88
2023-01-03T04:08:04.935Z,100393.38
2023-01-03T04:10:37.465Z,100384.84
2023-01-03T04:13:05.098Z,100386.03
2023-01-03T04:15:31.701Z,100393.69
2023-01-03T04:17:58.300Z,100388.84
2023-01-03T04:20:25.373Z,100381.88
2023-01-03T04:22:51.943Z,100406.06
2023-01-03T04:25:18.526Z,100402.91
2023-01-03T04:27:45.076Z,100401.25
2023-01-03T04:30:12.567Z,100398.22
2023-01-03T04:32:39.616Z,100408.19
2023-01-03T04:35:06.639Z,100422.13
2023-01-03T04:37:33.265Z,100430.41
2023-01-03T04:39:59.803Z,100419.69
2023-01-03T04:42:45.122Z,100438.22
2023-01-03T04:45:11.995Z,100419.69
2023-01-03T04:47:38.584Z,100424.53
2023-01-03T04:50:05.621Z,100420.31
2023-01-03T04:52:32.269Z,100434.59
2023-01-03T04:54:58.873Z,100431.88
2023-01-03T04:57:25.431Z,100436.34
2023-01-03T04:59:52.059Z,100433.38
2023-01-03T05:02:18.717Z,100436.09
2023-01-03T05:04:45.505Z,100442.47
2023-01-03T05:07:12.089Z,100450.78
2023-01-03T05:09:38.660Z,100453.28
2023-01-03T05:12:05.526Z,100447.44
2023-01-03T05:14:32.164Z,100443.00
2023-01-03T05:16:58.796Z,100451.63
2023-01-03T05:19:25.417Z,100448.53
2023-01-03T05:22:20.869Z,100454.34
2023-01-03T05:25:05.757Z,100462.16
2023-01-03T05:27:32.534Z,100452.34
2023-01-03T05:29:59.146Z,100454.94
2023-01-03T05:32:25.787Z,100465.53
2023-01-03T05:34:52.367Z,100457.91
2023-01-03T05:37:18.949Z,100468.19
2023-01-03T05:39:45.502Z,100472.50
2023-01-03T05:42:12.049Z,100471.22
2023-01-03T05:44:38.632Z,100467.59
2023-01-03T05:47:05.632Z,100466.88
2023-01-03T05:49:33.471Z,100469.91
2023-01-03T05:52:00.055Z,100474.09
2023-01-03T05:54:26.745Z,100481.19
2023-01-03T05:56:53.429Z,100476.56
2023-01-03T05:59:21.155Z,100491.66
2023-01-03T06:01:47.854Z,100493.53
2023-01-03T06:04:14.592Z,100491.34
2023-01-03T06:06:41.163Z,100491.03
2023-01-03T06:09:07.807Z,100489.34
2023-01-03T06:11:34.365Z,100486.88
2023-01-03T06:14:01.004Z,100497.31
2023-01-03T06:16:46.239Z,100493.41
2023-01-03T06:19:12.876Z,100496.19
2023-01-03T06:21:41.492Z,100499.44
2023-01-03T06:24:08.797Z,100501.56
2023-01-03T06:26:36.031Z,100508.66
2023-01-03T06:29:03.976Z,100513.13
2023-01-03T06:31:30.658Z,100511.31
2023-01-03T06:33:57.419Z,100514.66
2023-01-03T06:36:26.019Z,100515.09
2023-01-03T06:38:54.046Z,100520.66
2023-01-03T06:41:21.000Z,100527.50
2023-01-03T06:43:47.590Z,100528.16
2023-01-03T06:46:32.825Z,100539.75
2023-01-03T06:49:18.129Z,100543.56
2023-01-03T06:52:05.077Z,100541.44
2023-01-03T06:54:33.780Z,100548.41
2023-01-03T06:57:00.456Z,100551.50
2023-01-03T06:59:27.285Z,100562.47
2023-01-03T07:01:54.556Z,100557.94
2023-01-03T07:04:23.095Z,100564.91
2023-01-03T07:06:49.812Z,100560.59
2023-01-03T07:09:16.701Z,100554.88
2023-01-03T07:11:43.397Z,100558.34
2023-01-03T07:14:11.514Z,100566.00
2023-01-03T07:16:43.347Z,100563.44
2023-01-03T07:19:13.402Z,100565.97
2023-01-03T07:21:40.314Z,100577.38
2023-01-03T07:24:08.229Z,100575.41
2023-01-03T07:26:35.576Z,100576.19
2023-01-03T07:29:04.379Z,100588.22
2023-01-03T07:31:32.687Z,100574.66
2023-01-03T07:34:00.009Z,100579.78
2023-01-03T07:36:26.928Z,100579.19
2023-01-03T07:38:54.079Z,100584.75
2023-01-03T07:41:20.700Z,100580.81
2023-01-03T07:43:48.870Z,100585.47
2023-01-03T07:46:17.034Z,100577.91
2023-01-03T07:48:45.212Z,100582.63
2023-01-03T07:51:13.863Z,100591.72
2023-01-03T07:53:40.779Z,100593.75
2023-01-03T07:56:13.190Z,100598.13
2023-01-03T07:58:41.540Z,100601.81
2023-01-03T08:01:13.347Z,100593.78
2023-01-03T08:03:40.703Z,100600.19
2023-01-03T08:06:09.620Z,100596.91
2023-01-03T08:08:36.779Z,100599.09
2023-01-03T08:11:22.837Z,100600.31
2023-01-03T08:13:50.191Z,100614.44
2023-01-03T08:16:18.599Z,100612.00
2023-01-03T08:18:45.713Z,100610.09
2023-01-03T08:21:14.171Z,100616.47
2023-01-03T08:23:41.469Z,100615.88
2023-01-03T08:26:11.019Z,100615.75
2023-01-03T08:28:38.123Z,100606.97
2023-01-03T08:31:23.650Z,100614.50
2023-01-03T08:34:00.635Z,100617.91
2023-01-03T08:36:28.945Z,100624.22
2023-01-03T08:39:03.005Z,100622.25
2023-01-03T08:41:32.703Z,100630.09
2023-01-03T08:44:00.921Z,100621.00
2023-01-03T08:46:27.924Z,100617.84
2023-01-03T08:48:55.147Z,100614.50
2023-01-03T08:51:21.698Z,100628.81
2023-01-03T08:53:48.344Z,100623.16
2023-01-03T08:56:15.038Z,100624.94
2023-01-03T08:58:41.582Z,100629.78
2023-01-03T09:01:08.367Z,100627.59
2023-01-03T09:03:35.261Z,100620.44
2023-01-03T09:06:02.983Z,100622.41
2023-01-03T09:08:35.320Z,100622.22
2023-01-03T09:11:06.379Z,100624.56
2023-01-03T09:13:33.208Z,100636.19
2023-01-03T09:16:04.172Z,100635.34
2023-01-03T09:18:30.896Z,100631.53
2023-01-03T09:20:57.480Z,100634.66
2023-01-03T09:23:24.049Z,100632.31
2023-01-03T09:25:50.687Z,100635.25
2023-01-03T09:28:17.284Z,100634.72
2023-01-03T09:30:43.850Z,100634.13
2023-01-03T09:33:10.713Z,100637.06
2023-01-03T09:35:37.889Z,100639.81
2023-01-03T09:38:05.132Z,100639.59
2023-01-03T09:40:36.172Z,100634.25
2023-01-03T09:43:13.235Z,100639.66
2023-01-03T09:45:43.431Z,100636.53
2023-01-03T09:48:16.521Z,100635.66
2023-01-03T09:51:15.960Z,100623.47
2023-01-03T09:53:57.958Z,100628.25
2023-01-03T09:56:42.873Z,100625.75
2023-01-03T09:59:33.620Z,100626.31
2023-01-03T10:02:19.106Z,100625.22
2023-01-03T10:05:05.323Z,100615.28
2023-01-03T10:07:50.130Z,100623.19
2023-01-03T10:10:28.823Z,100620.75
2023-01-03T10:13:17.838Z,100616.31
2023-01-03T10:16:07.723Z,100625.16
2023-01-03T10:18:50.307Z,100618.25
2023-01-03T10:21:25.765Z,100624.06
2023-01-03T10:23:53.712Z,100613.47
2023-01-03T10:26:20.316Z,100615.66
2023-01-03T10:28:47.794Z,100615.09
2023-01-03T10:31:41.747Z,100617.94
2023-01-03T10:34:10.556Z,100620.88
2023-01-03T10:36:37.124Z,100618.47
2023-01-03T10:39:10.925Z,100615.25
2023-01-03T10:41:47.457Z,100615.06
2023-01-03T10:44:25.779Z,100607.72
2023-01-03T10:46:54.827Z,100608.47
2023-01-03T10:49:29.030Z,100604.63
2023-01-03T10:52:11.959Z,100606.06
2023-01-03T10:54:42.195Z,100599.63
2023-01-03T10:57:38.242Z,100606.53
2023-01-03T11:00:30.728Z,100609.88
2023-01-03T11:03:12.544Z,100603.56
2023-01-03T11:05:41.239Z,100598.41
2023-01-03T11:08:19.792Z,100601.28
2023-01-03T11:10:55.926Z,100602.47
2023-01-03T11:13:34.512Z,100587.56
2023-01-03T11:16:03.500Z,100592.66
2023-01-03T11:18:30.884Z,100595.47
2023-01-03T11:21:07.133Z,100593.19
2023-01-03T11:24:07.912Z,100588.53
2023-01-03T11:26:37.404Z,100586.69
2023-01-03T11:29:14.514Z,100589.22
2023-01-03T11:32:02.451Z,100582.34
2023-01-03T11:35:24.076Z,100583.03
2023-01-03T11:38:26.951Z,100582.09
2023-01-03T11:41:19.782Z,100583.94
2023-01-03T11:44:20.567Z,100579.03
2023-01-03T11:47:05.480Z,100581.25
2023-01-03T11:49:33.883Z,100575.00
2023-01-03T11:52:19.773Z,100575.66
2023-01-03T11:55:04.785Z,100572.31
2023-01-03T11:57:56.379Z,100568.03
2023-01-03T12:00:44.452Z,100563.50
2023-01-03T12:03:25.257Z,100571.75
2023-01-03T12:05:59.261Z,100573.41
2023-01-03T12:08:46.623Z,100569.53
2023-01-03T12:11:45.066Z,100561.94
2023-01-03T12:14:17.346Z,100568.63
2023-01-03T12:17:02.949Z,100563.06
2023-01-03T12:19:35.252Z,100567.88
2023-01-03T12:22:07.223Z,100565.50
2023-01-03T12:25:02.511Z,100571.94
2023-01-03T12:27:35.926Z,100567.88
2023-01-03T12:30:07.918Z,100569.53
2023-01-03T12:32:43.346Z,100561.78
2023-01-03T12:35:44.396Z,100571.00
2023-01-03T12:38:11.774Z,100562.31
2023-01-03T12:40:50.525Z,100568.09
2023-01-03T12:43:27.261Z,100556.06
2023-01-03T12:45:56.271Z,100560.88
2023-01-03T12:48:40.834Z,100558.94
2023-01-03T12:51:07.826Z,100551.91
2023-01-03T12:53:46.917Z,100551.34
2023-01-03T12:56:13.826Z,100552.56
2023-01-03T12:59:15.708Z,100549.25
2023-01-03T13:01:59.160Z,100548.41
2023-01-03T13:04:28.691Z,100549.41
2023-01-03T13:07:11.021Z,100553.84
2023-01-03T13:09:44.000Z,100550.00
2023-01-03T13:12:15.782Z,100544.13
2023-01-03T13:14:55.853Z,100544.94
2023-01-03T13:17:25.408Z,100547.81
2023-01-03T13:20:29.350Z,100549.50
2023-01-03T13:22:57.194Z,100550.16
2023-01-03T13:25:26.826Z,100550.41
2023-01-03T13:27:55.600Z,100549.75
2023-01-03T13:30:24.240Z,100550.78
2023-01-03T13:33:13.393Z,100554.72
2023-01-03T13:35:42.721Z,100547.47
2023-01-03T13:38:25.483Z,100553.59
2023-01-03T13:43:48.723Z,100542.72
2023-01-03T13:46:31.768Z,100550.50
2023-01-03T13:49:07.419Z,100546.41
2023-01-03T13:51:40.980Z,100549.66
2023-01-03T13:54:26.099Z,100553.38
2023-01-03T13:56:52.830Z,100547.19
2023-01-03T13:59:36.508Z,100549.19
2023-01-03T14:02:12.265Z,100553.94
2023-01-03T14:05:07.859Z,100560.53
2023-01-03T14:08:13.511Z,100563.84
2023-01-03T14:10:59.570Z,100571.69
2023-01-03T14:13:50.364Z,100565.19
2023-01-03T14:16:17.105Z,100566.38
2023-01-03T14:18:56.424Z,100574.00
2023-01-03T14:21:26.901Z,100571.09
2023-01-03T14:24:00.291Z,100581.19
2023-01-03T14:26:28.184Z,100579.09
2023-01-03T14:28:55.916Z,100579.28
2023-01-03T14:31:27.651Z,100581.66
2023-01-03T14:34:01.639Z,100579.91
2023-01-03T14:36:28.726Z,100589.34
2023-01-03T14:39:00.321Z,100583.75
2023-01-03T14:41:34.907Z,100587.00
2023-01-03T14:44:04.207Z,100590.00
2023-01-03T14:46:31.760Z,100586.88
2023-01-03T14:49:03.547Z,100591.78
2023-01-03T14:51:35.148Z,100595.19
2023-01-03T14:54:03.468Z,100596.72
2023-01-03T14:56:30.332Z,100595.97
2023-01-03T14:58:57.912Z,100595.75
2023-01-03T15:01:25.148Z,100595.75
2023-01-03T15:03:52.623Z,100589.09
2023-01-03T15:06:22.052Z,100588.00
2023-01-03T15:08:51.661Z,100585.25
2023-01-03T15:11:56.370Z,100592.16
2023-01-03T15:14:24.378Z,100593.28
2023-01-03T15:16:51.893Z,100588.66
2023-01-03T15:19:27.795Z,100597.06
2023-01-03T15:22:06.611Z,100588.97
2023-01-03T15:24:43.308Z,100589.69
2023-01-03T15:27:48.377Z,100592.53
2023-01-03T15:30:23.278Z,100601.19
2023-01-03T15:32:52.242Z,100604.06
2023-01-03T15:35:22.745Z,100604.59
2023-01-03T15:37:53.588Z,100614.66
2023-01-03T15:40:20.499Z,100606.16
2023-01-03T15:43:06.044Z,100617.22
2023-01-03T15:45:39.590Z,100619.22
2023-01-03T15:48:13.872Z,100618.66
2023-01-03T15:50:47.955Z,100624.78
2023-01-03T15:53:26.893Z,100620.28
2023-01-03T15:56:06.358Z,100619.50
2023-01-03T15:58:34.077Z,100623.00
2023-01-03T16:01:00.967Z,100615.81
2023-01-03T16:03:30.558Z,100619.41
2023-01-03T16:05:57.366Z,100619.75
2023-01-03T16:08:30.972Z,100616.91
2023-01-03T16:10:59.496Z,100625.09
2023-01-03T16:13:28.025Z,100630.63
2023-01-03T16:15:55.029Z,100628.50
2023-01-03T16:18:26.704Z,100614.63
2023-01-03T16:20:55.412Z,100621.34
2023-01-03T16:23:28.332Z,100616.69
2023-01-03T16:25:55.344Z,100610.78
2023-01-03T16:28:23.204Z,100622.84
2023-01-03T16:31:14.014Z,100626.69
2023-01-03T16:33:41.836Z,100627.91
2023-01-03T16:36:39.294Z,100637.56
2023-01-03T16:39:14.327Z,100629.44
2023-01-03T16:41:40.990Z,100630.75
2023-01-03T16:44:07.608Z,100633.59
2023-01-03T16:46:35.537Z,100645.91
2023-01-03T16:49:02.256Z,100656.81
2023-01-03T16:51:31.421Z,100652.16
2023-01-03T16:53:59.275Z,100662.38
2023-01-03T16:56:26.673Z,100659.88
2023-01-03T16:58:53.507Z,100662.78
2023-01-03T17:01:20.535Z,100664.63
2023-01-03T17:03:47.367Z,100669.47
2023-01-03T17:06:38.102Z,100656.31
2023-01-03T17:09:14.311Z,100663.91
2023-01-03T17:11:41.065Z,100666.88
2023-01-03T17:14:14.390Z,100671.91
2023-01-03T17:16:40.972Z,100675.28
2023-01-03T17:22:25.531Z,100683.44
2023-01-03T17:24:52.319Z,100682.63
2023-01-03T17:27:27.731Z,100681.97
2023-01-03T17:30:00.615Z,100683.97
2023-01-03T17:32:27.215Z,100685.16
2023-01-03T17:34:53.796Z,100685.69
2023-01-03T17:37:21.901Z,100691.84
2023-01-03T17:39:53.348Z,100694.03
2023-01-03T17:42:20.345Z,100702.22
2023-01-03T17:45:06.802Z,100705.03
2023-01-03T17:47:53.812Z,100699.91
2023-01-03T17:50:20.384Z,100698.03
2023-01-03T17:52:50.294Z,100705.09
2023-01-03T17:55:23.577Z,100702.59
2023-01-03T17:57:50.734Z,100694.59
2023-01-03T18:00:23.362Z,100701.75
2023-01-03T18:02:50.852Z,100708.75
2023-01-03T18:05:26.566Z,100713.59
2023-01-03T18:07:59.088Z,100705.91
2023-01-03T18:10:40.245Z,100709.91
2023-01-03T18:13:19.552Z,100712.03
2023-01-03T18:15:46.186Z,100706.41
2023-01-03T18:18:20.022Z,100710.91
2023-01-03T18:20:47.134Z,100716.59
2023-01-03T18:23:26.255Z,100709.41
2023-01-03T18:25:53.009Z,100708.09
2023-01-03T18:28:23.543Z,100710.72
2023-01-03T18:30:50.163Z,100710.41
2023-01-03T18:33:16.780Z,100711.38
2023-01-03T18:35:43.735Z,100714.75
2023-01-03T18:38:28.085Z,100719.41
2023-01-03T18:41:00.654Z,100724.91
2023-01-03T18:43:30.887Z,100720.94
2023-01-03T18:45:57.574Z,100725.09
2023-01-03T18:48:24.464Z,100716.44
2023-01-03T18:50:57.969Z,100717.59
2023-01-03T18:53:28.898Z,100719.44
2023-01-03T18:55:55.584Z,100723.28
2023-01-03T18:58:32.007Z,100729.97
2023-01-03T19:00:58.793Z,100735.81
2023-01-03T19:03:27.088Z,100734.28
2023-01-03T19:05:57.017Z,100732.63
2023-01-03T19:08:25.121Z,100732.81
2023-01-03T19:10:52.047Z,100735.66
2023-01-03T19:13:25.683Z,100732.16
2023-01-03T19:15:52.630Z,100739.16
2023-01-03T19:18:19.311Z,100732.97
2023-01-03T19:20:46.887Z,100739.63
2023-01-03T19:23:24.132Z,100738.16
2023-01-03T19:25:50.972Z,100736.13
2023-01-03T19:28:23.198Z,100725.97
2023-01-03T19:30:50.027Z,100720.13
2023-01-03T19:33:19.249Z,100732.94
2023-01-03T19:35:46.066Z,100721.25
2023-01-03T19:38:13.368Z,100727.56
2023-01-03T19:40:41.320Z,100726.06
2023-01-03T19:43:18.490Z,100723.28
2023-01-03T19:45:45.122Z,100733.56
2023-01-03T19:48:20.482Z,100731.38
2023-01-03T19:50:47.286Z,100739.06
2023-01-03T19:53:14.136Z,100736.56
2023-01-03T19:55:43.321Z,100737.03
2023-01-03T19:58:36.546Z,100730.19
2023-01-03T20:01:03.758Z,100735.69
2023-01-03T20:03:39.283Z,100739.72
2023-01-03T20:06:08.740Z,100734.84
2023-01-03T20:08:35.316Z,100743.03
2023-01-03T20:11:02.188Z,100744.72
2023-01-03T20:13:28.785Z,100747.16
2023-01-03T20:16:00.250Z,100736.25
2023-01-03T20:18:33.982Z,100748.75
2023-01-03T20:21:05.255Z,100749.69
2023-01-03T20:23:34.978Z,100746.88
2023-01-03T20:26:01.909Z,100749.69
2023-01-03T20:28:31.306Z,100743.19
2023-01-03T20:30:59.261Z,100738.28
2023-01-03T20:33:26.763Z,100744.38
2023-01-03T20:36:11.113Z,100748.16
2023-01-03T20:38:42.992Z,100747.50
2023-01-03T20:41:12.238Z,100746.72
2023-01-03T20:43:38.994Z,100747.75
2023-01-03T20:46:05.666Z,100755.59
2023-01-03T20:48:32.360Z,100760.81
2023-01-03T20:50:58.969Z,100761.47
2023-01-03T20:53:26.620Z,100754.28
2023-01-03T20:55:53.892Z,100755.69
2023-01-03T20:58:25.327Z,100754.66
2023-01-03T21:00:56.709Z,100763.44
2023-01-03T21:03:28.581Z,100755.34
2023-01-03T21:05:56.175Z,100757.19
2023-01-03T21:08:41.277Z,100750.53
2023-01-03T21:11:07.860Z,100760.69
2023-01-03T21:13:34.410Z,100758.00
2023-01-03T21:16:01.136Z,100752.28
2023-01-03T21:18:27.860Z,100748.69
2023-01-03T21:20:54.468Z,100749.38
2023-01-03T21:23:23.058Z,100757.59
2023-01-03T21:25:50.706Z,100760.03
2023-01-03T21:28:17.371Z,100747.97
2023-01-03T21:30:44.033Z,100751.22
2023-01-03T21:33:16.684Z,100753.31
2023-01-03T21:35:43.360Z,100753.66
2023-01-03T21:38:10.447Z,100756.50
2023-01-03T21:40:37.072Z,100761.00
2023-01-03T21:43:05.039Z,100753.66
2023-01-03T21:45:35.187Z,100757.03
2023-01-03T21:48:04.092Z,100759.69
2023-01-03T21:50:31.174Z,100757.53
2023-01-03T21:52:58.047Z,100758.25
2023-01-03T21:55:24.823Z,100764.13
2023-01-03T21:57:51.507Z,100769.78
2023-01-03T22:00:18.905Z,100769.47
2023-01-03T22:03:04.697Z,100781.66
2023-01-03T22:05:31.921Z,100792.66
2023-01-03T22:08:00.186Z,100785.69
2023-01-03T22:10:27.375Z,100781.19
2023-01-03T22:12:56.714Z,100783.00
2023-01-03T22:15:24.625Z,100781.69
2023-01-03T22:17:52.348Z,100777.69
2023-01-03T22:20:20.716Z,100791.84
2023-01-03T22:22:47.754Z,100790.16
2023-01-03T22:25:16.745Z,100777.84
2023-01-03T22:27:44.043Z,100787.31
2023-01-03T22:30:14.030Z,100795.44
2023-01-03T22:32:40.761Z,100788.94
2023-01-03T22:35:07.883Z,100789.28
2023-01-03T22:37:34.487Z,100788.09
2023-01-03T22:40:01.053Z,100784.78
2023-01-03T22:42:27.638Z,100789.22
2023-01-03T22:44:54.244Z,100787.34
2023-01-03T22:47:20.867Z,100796.13
2023-01-03T22:49:47.612Z,100796.13
2023-01-03T22:52:14.239Z,100793.06
2023-01-03T22:54:41.606Z,100791.59
2023-01-03T22:57:08.243Z,100792.41
2023-01-03T22:59:34.829Z,100789.88
2023-01-03T23:02:02.969Z,100787.34
2023-01-03T23:04:29.718Z,100786.53
2023-01-03T23:06:56.338Z,100796.97
2023-01-03T23:09:23.759Z,100792.78
2023-01-03T23:12:08.987Z,100789.94
2023-01-03T23:14:35.606Z,100790.94
2023-01-03T23:17:22.355Z,100789.13
2023-01-03T23:19:49.137Z,100784.53
2023-01-03T23:22:15.939Z,100791.94
2023-01-03T23:24:42.517Z,100789.25
2023-01-03T23:27:09.099Z,100792.03
2023-01-03T23:29:35.728Z,100793.38
2023-01-03T23:32:02.346Z,100784.91
2023-01-03T23:34:28.920Z,100791.53
2023-01-03T23:36:55.539Z,100786.94
2023-01-03T23:39:22.175Z,100792.56
2023-01-03T23:41:48.886Z,100775.56
2023-01-03T23:44:15.582Z,100784.66
2023-01-03T23:46:42.645Z,100779.69
2023-01-03T23:49:11.511Z,100775.50
2023-01-03T23:51:38.511Z,100772.41
2023-01-03T23:54:05.184Z,100770.09
2023-01-03T23:56:31.987Z,100767.75
2023-01-03T23:58:58.662Z,100765.38
